createdAt,value
2018-06-15T00:00:00.702Z,101705.82
2018-06-15T00:02:35.649Z,101701.03
2018-06-15T00:05:07.893Z,101705.06
2018-06-15T00:07:41.010Z,101703.59
2018-06-15T00:10:14.159Z,101701.98
2018-06-15T00:12:47.625Z,101698.63
2018-06-15T00:15:20.846Z,101699.91
2018-06-15T00:17:53.370Z,101701.98
2018-06-15T00:20:28.044Z,101699.32
2018-06-15T00:22:59.631Z,101695.88
2018-06-15T00:25:31.978Z,101696.36
2018-06-15T00:28:03.777Z,101693.69
2018-06-15T00:30:34.303Z,101687.75
2018-06-15T00:33:07.887Z,101689.05
2018-06-15T00:35:41.104Z,101686.83
2018-06-15T00:38:12.719Z,101689.23
2018-06-15T00:40:47.309Z,101683.18
2018-06-15T00:43:22.196Z,101672.99
2018-06-15T00:45:55.133Z,101675.05
2018-06-15T00:48:28.450Z,101675.01
2018-06-15T00:51:02.953Z,101674.72
2018-06-15T00:53:34.394Z,101671.28
2018-06-15T00:56:09.397Z,101671.08
2018-06-15T00:58:42.588Z,101674.98
2018-06-15T01:01:15.551Z,101674.61
2018-06-15T01:03:48.768Z,101680.45
2018-06-15T01:06:20.123Z,101681.56
2018-06-15T01:08:51.636Z,101677.66
2018-06-15T01:11:24.599Z,101681.73
2018-06-15T01:13:55.146Z,101683.32
2018-06-15T01:16:27.905Z,101684.66
2018-06-15T01:19:01.010Z,101683.25
2018-06-15T01:21:35.341Z,101686.55
2018-06-15T01:24:08.768Z,101686.53
2018-06-15T01:26:43.330Z,101678.63
2018-06-15T01:29:15.256Z,101681.14
2018-06-15T01:31:45.241Z,101676.16
2018-06-15T01:34:18.715Z,101675.81
2018-06-15T01:36:51.776Z,101677.92
2018-06-15T01:39:25.477Z,101669.73
2018-06-15T01:41:58.780Z,101671.47
2018-06-15T01:44:31.836Z,101669.67
2018-06-15T01:47:03.432Z,101672.83
2018-06-15T01:49:34.933Z,101669.72
2018-06-15T01:52:07.500Z,101671.28
2018-06-15T01:54:39.859Z,101673.03
2018-06-15T01:57:09.879Z,101675.91
2018-06-15T01:59:42.983Z,101679.00
2018-06-15T02:02:16.129Z,101679.25
2018-06-15T02:04:46.284Z,101677.09
2018-06-15T02:07:18.474Z,101671.83
2018-06-15T02:09:49.983Z,101665.52
2018-06-15T02:12:24.237Z,101674.36
2018-06-15T02:14:58.626Z,101665.79
2018-06-15T02:17:30.729Z,101674.64
2018-06-15T02:20:02.343Z,101680.17
2018-06-15T02:22:37.510Z,101676.22
2018-06-15T02:25:12.124Z,101677.69
2018-06-15T02:27:43.635Z,101679.47
2018-06-15T02:30:18.271Z,101674.09
2018-06-15T02:32:52.818Z,101679.95
2018-06-15T02:35:26.057Z,101678.14
2018-06-15T02:38:00.570Z,101677.08
2018-06-15T02:40:33.539Z,101681.74
2018-06-15T02:43:07.180Z,101678.52
2018-06-15T02:45:41.637Z,101675.02
2018-06-15T02:48:13.617Z,101680.91
2018-06-15T02:50:45.063Z,101675.23
2018-06-15T02:53:18.623Z,101677.23
2018-06-15T02:55:53.104Z,101677.60
2018-06-15T02:58:23.221Z,101680.41
2018-06-15T03:00:52.692Z,101677.02
2018-06-15T03:03:22.031Z,101676.31
2018-06-15T03:05:55.439Z,101673.67
2018-06-15T03:08:28.199Z,101679.77
2018-06-15T03:10:58.661Z,101689.16
2018-06-15T03:13:33.160Z,101686.63
2018-06-15T03:16:06.164Z,101689.16
2018-06-15T03:18:39.435Z,101690.78
2018-06-15T03:21:12.586Z,101694.64
2018-06-15T03:23:44.162Z,101696.87
2018-06-15T03:26:17.286Z,101695.61
2018-06-15T03:28:52.055Z,101702.34
2018-06-15T03:31:25.155Z,101705.83
2018-06-15T03:33:58.621Z,101706.97
2018-06-15T03:36:33.658Z,101709.89
2018-06-15T03:39:07.352Z,101717.13
2018-06-15T03:41:36.722Z,101709.33
2018-06-15T03:44:10.026Z,101715.16
2018-06-15T03:46:44.945Z,101715.01
2018-06-15T03:49:17.120Z,101714.89
2018-06-15T03:51:48.628Z,101715.59
2018-06-15T03:54:21.871Z,101711.53
2018-06-15T03:56:55.041Z,101713.20
2018-06-15T03:59:26.948Z,101726.03
2018-06-15T04:01:57.637Z,101719.95
2018-06-15T04:04:32.334Z,101719.80
2018-06-15T04:07:03.884Z,101720.80
2018-06-15T04:09:38.382Z,101717.13
2018-06-15T04:12:08.271Z,101724.64
2018-06-15T04:14:40.016Z,101721.20
2018-06-15T04:17:12.959Z,101722.95
2018-06-15T04:19:46.234Z,101730.12
2018-06-15T04:22:16.937Z,101730.45
2018-06-15T04:24:49.021Z,101724.83
2018-06-15T04:27:22.214Z,101722.38
2018-06-15T04:29:55.498Z,101728.60
2018-06-15T04:32:28.707Z,101726.30
2018-06-15T04:35:01.963Z,101726.22
2018-06-15T04:37:34.025Z,101722.17
2018-06-15T04:40:08.634Z,101721.47
2018-06-15T04:42:43.423Z,101718.83
2018-06-15T04:45:16.892Z,101721.47
2018-06-15T04:47:50.014Z,101722.02
2018-06-15T04:50:20.064Z,101719.83
2018-06-15T04:52:51.503Z,101723.37
2018-06-15T04:55:24.524Z,101726.05
2018-06-15T04:57:58.150Z,101727.50
2018-06-15T05:00:31.422Z,101724.09
2018-06-15T05:03:06.034Z,101725.25
2018-06-15T05:05:36.140Z,101721.45
2018-06-15T05:08:09.331Z,101728.37
2018-06-15T05:10:41.464Z,101732.91
2018-06-15T05:13:15.831Z,101732.05
2018-06-15T05:15:49.283Z,101735.34
2018-06-15T05:18:20.989Z,101734.72
2018-06-15T05:20:54.191Z,101735.09
2018-06-15T05:23:24.196Z,101735.99
2018-06-15T05:25:55.929Z,101742.70
2018-06-15T05:28:28.839Z,101738.32
2018-06-15T05:31:02.068Z,101742.64
2018-06-15T05:33:33.787Z,101744.04
2018-06-15T05:36:08.743Z,101745.73
2018-06-15T05:38:41.816Z,101756.37
2018-06-15T05:41:14.537Z,101746.84
2018-06-15T05:43:44.514Z,101744.81
2018-06-15T05:46:15.704Z,101745.13
2018-06-15T05:48:48.824Z,101744.47
2018-06-15T05:51:21.739Z,101751.19
2018-06-15T05:53:56.336Z,101754.17
2018-06-15T05:56:27.741Z,101753.88
2018-06-15T05:58:59.233Z,101752.84
2018-06-15T06:01:34.163Z,101761.48
2018-06-15T06:04:07.306Z,101758.56
2018-06-15T06:06:40.373Z,101760.55
2018-06-15T06:09:11.577Z,101766.23
2018-06-15T06:11:44.798Z,101768.23
2018-06-15T06:14:16.832Z,101769.61
2018-06-15T06:16:46.897Z,101763.98
2018-06-15T06:19:18.401Z,101766.77
2018-06-15T06:21:52.125Z,101768.20
2018-06-15T06:24:25.059Z,101768.11
2018-06-15T06:26:55.632Z,101774.05
2018-06-15T06:29:28.726Z,101772.94
2018-06-15T06:32:00.241Z,101775.08
2018-06-15T06:34:33.820Z,101774.92
2018-06-15T06:37:08.854Z,101780.42
2018-06-15T06:39:42.175Z,101785.52
2018-06-15T06:42:12.136Z,101786.56
2018-06-15T06:44:44.968Z,101787.02
2018-06-15T06:47:16.585Z,101795.08
2018-06-15T06:49:50.964Z,101791.08
2018-06-15T06:52:23.113Z,101793.88
2018-06-15T06:54:56.190Z,101792.95
2018-06-15T06:57:29.479Z,101797.26
2018-06-15T07:00:02.535Z,101791.69
2018-06-15T07:02:37.100Z,101793.39
2018-06-15T07:05:08.618Z,101791.84
2018-06-15T07:07:41.760Z,101794.47
2018-06-15T07:10:14.523Z,101801.38
2018-06-15T07:12:46.620Z,101805.50
2018-06-15T07:15:18.118Z,101806.41
2018-06-15T07:17:51.632Z,101807.05
2018-06-15T07:20:21.513Z,101805.23
2018-06-15T07:22:53.444Z,101804.25
2018-06-15T07:25:23.354Z,101802.11
2018-06-15T07:27:57.840Z,101805.38
2018-06-15T07:30:40.256Z,101801.04
2018-06-15T07:33:11.648Z,101795.41
2018-06-15T07:35:44.828Z,101796.14
2018-06-15T07:38:18.192Z,101800.08
2018-06-15T07:40:51.276Z,101797.41
2018-06-15T07:43:25.669Z,101793.23
2018-06-15T07:46:00.155Z,101787.40
2018-06-15T07:48:31.650Z,101792.77
2018-06-15T07:51:03.559Z,101792.52
2018-06-15T07:53:36.589Z,101799.72
2018-06-15T07:56:08.077Z,101801.88
2018-06-15T07:58:41.150Z,101796.28
2018-06-15T08:01:16.060Z,101797.08
2018-06-15T08:04:05.828Z,101792.55
2018-06-15T08:06:38.749Z,101792.78
2018-06-15T08:09:12.961Z,101796.16
2018-06-15T08:11:46.059Z,101801.16
2018-06-15T08:14:17.471Z,101798.38
2018-06-15T08:16:51.841Z,101796.61
2018-06-15T08:19:24.845Z,101800.77
2018-06-15T08:21:54.781Z,101803.62
2018-06-15T08:24:26.742Z,101803.99
2018-06-15T08:27:06.995Z,101811.08
2018-06-15T08:29:38.441Z,101811.91
2018-06-15T08:32:08.468Z,101809.55
2018-06-15T08:34:41.537Z,101808.22
2018-06-15T08:37:14.669Z,101814.23
2018-06-15T08:39:46.201Z,101812.29
2018-06-15T08:42:19.185Z,101817.16
2018-06-15T08:44:53.765Z,101809.22
2018-06-15T08:47:24.578Z,101810.29
2018-06-15T08:49:58.832Z,101812.63
2018-06-15T08:52:32.462Z,101810.37
2018-06-15T08:55:04.045Z,101807.06
2018-06-15T08:57:33.943Z,101807.67
2018-06-15T09:00:06.761Z,101813.08
2018-06-15T09:02:39.685Z,101809.66
2018-06-15T09:05:13.184Z,101807.66
2018-06-15T09:07:45.276Z,101810.34
2018-06-15T09:10:16.693Z,101805.13
2018-06-15T09:12:49.649Z,101809.84
2018-06-15T09:15:22.651Z,101815.51
2018-06-15T09:17:54.023Z,101807.97
2018-06-15T09:20:24.420Z,101807.20
2018-06-15T09:22:59.252Z,101808.12
2018-06-15T09:25:32.224Z,101808.13
2018-06-15T09:28:03.713Z,101810.45
2018-06-15T09:30:35.076Z,101808.00
2018-06-15T09:33:07.962Z,101804.33
2018-06-15T09:35:42.326Z,101807.70
2018-06-15T09:38:16.587Z,101807.83
2018-06-15T09:40:48.497Z,101803.36
2018-06-15T09:43:21.638Z,101806.16
2018-06-15T09:45:53.559Z,101808.43
2018-06-15T09:48:23.510Z,101805.36
2018-06-15T09:50:56.532Z,101800.92
2018-06-15T09:53:28.115Z,101802.27
2018-06-15T09:56:00.154Z,101800.53
2018-06-15T09:58:31.677Z,101801.10
2018-06-15T10:01:15.030Z,101802.73
2018-06-15T10:03:48.193Z,101805.02
2018-06-15T10:06:18.882Z,101800.47
2018-06-15T10:08:50.743Z,101795.39
2018-06-15T10:11:21.261Z,101799.29
2018-06-15T10:13:52.604Z,101796.70
2018-06-15T10:16:25.998Z,101796.03
2018-06-15T10:18:58.043Z,101802.09
2018-06-15T10:21:30.814Z,101790.92
2018-06-15T10:24:00.817Z,101797.54
2018-06-15T10:26:33.728Z,101798.67
2018-06-15T10:29:08.268Z,101789.52
2018-06-15T10:31:39.353Z,101796.37
2018-06-15T10:34:10.743Z,101796.52
2018-06-15T10:36:42.507Z,101794.59
2018-06-15T10:39:16.590Z,101790.35
2018-06-15T10:41:49.403Z,101791.53
2018-06-15T10:44:22.570Z,101795.75
2018-06-15T10:46:56.910Z,101787.38
2018-06-15T10:49:26.837Z,101792.70
2018-06-15T10:51:58.816Z,101787.03
2018-06-15T10:54:32.247Z,101785.31
2018-06-15T10:57:04.680Z,101791.26
2018-06-15T10:59:37.595Z,101785.48
2018-06-15T11:02:10.819Z,101785.33
2018-06-15T11:04:40.631Z,101790.37
2018-06-15T11:07:12.169Z,101781.45
2018-06-15T11:09:43.572Z,101783.30
2018-06-15T11:12:14.958Z,101777.34
2018-06-15T11:14:46.533Z,101778.73
2018-06-15T11:17:19.738Z,101778.64
2018-06-15T11:19:52.879Z,101780.91
2018-06-15T11:22:25.701Z,101779.44
2018-06-15T11:24:57.086Z,101780.02
2018-06-15T11:27:30.226Z,101774.77
2018-06-15T11:30:03.942Z,101780.45
2018-06-15T11:32:36.789Z,101779.45
2018-06-15T11:35:08.533Z,101771.72
2018-06-15T11:37:39.951Z,101769.20
2018-06-15T11:40:12.409Z,101771.19
2018-06-15T11:42:43.852Z,101775.44
2018-06-15T11:45:18.073Z,101775.53
2018-06-15T11:47:49.993Z,101766.23
2018-06-15T11:50:25.082Z,101773.67
2018-06-15T11:52:56.934Z,101765.51
2018-06-15T11:55:30.029Z,101767.43
2018-06-15T11:58:01.388Z,101772.28
2018-06-15T12:00:31.884Z,101772.18
2018-06-15T12:03:01.822Z,101768.45
2018-06-15T12:05:31.633Z,101761.09
2018-06-15T12:08:04.433Z,101761.56
2018-06-15T12:10:35.853Z,101753.30
2018-06-15T12:13:07.835Z,101756.02
2018-06-15T12:15:40.788Z,101751.91
2018-06-15T12:18:13.044Z,101746.05
2018-06-15T12:20:44.410Z,101742.30
2018-06-15T12:23:19.013Z,101742.09
2018-06-15T12:25:50.462Z,101745.31
2018-06-15T12:28:23.517Z,101752.13
2018-06-15T12:30:55.247Z,101740.02
2018-06-15T12:33:28.147Z,101740.63
2018-06-15T12:36:01.264Z,101732.66
2018-06-15T12:38:32.612Z,101735.73
2018-06-15T12:41:05.402Z,101733.05
2018-06-15T12:43:36.764Z,101729.23
2018-06-15T12:46:09.631Z,101742.14
2018-06-15T12:48:41.040Z,101741.27
2018-06-15T12:51:15.470Z,101745.03
2018-06-15T12:53:48.918Z,101742.08
2018-06-15T12:56:20.409Z,101739.51
2018-06-15T12:58:53.345Z,101739.93
2018-06-15T13:01:26.555Z,101736.47
2018-06-15T13:03:59.912Z,101745.05
2018-06-15T13:06:31.325Z,101744.14
2018-06-15T13:09:03.695Z,101745.53
2018-06-15T13:11:39.134Z,101746.75
2018-06-15T13:14:10.556Z,101748.09
2018-06-15T13:16:41.901Z,101743.83
2018-06-15T13:19:14.916Z,101744.62
2018-06-15T13:21:48.087Z,101742.34
2018-06-15T13:24:20.969Z,101739.14
2018-06-15T13:26:53.847Z,101738.63
2018-06-15T13:29:23.703Z,101748.47
2018-06-15T13:31:56.853Z,101751.62
2018-06-15T13:34:28.539Z,101747.55
2018-06-15T13:36:58.661Z,101747.02
2018-06-15T13:39:30.183Z,101745.80
2018-06-15T13:42:00.219Z,101741.31
2018-06-15T13:44:34.942Z,101747.63
2018-06-15T13:47:06.725Z,101743.50
2018-06-15T13:49:38.099Z,101742.98
2018-06-15T13:52:11.036Z,101738.84
2018-06-15T13:54:44.053Z,101743.52
2018-06-15T13:57:13.944Z,101739.00
2018-06-15T13:59:43.871Z,101740.11
2018-06-15T14:02:17.113Z,101734.17
2018-06-15T14:04:47.073Z,101735.55
2018-06-15T14:07:18.483Z,101727.71
2018-06-15T14:09:48.131Z,101729.70
2018-06-15T14:12:22.742Z,101730.89
2018-06-15T14:14:54.956Z,101734.19
2018-06-15T14:17:26.337Z,101729.42
2018-06-15T14:19:57.768Z,101720.66
2018-06-15T14:22:31.057Z,101724.98
2018-06-15T14:25:05.284Z,101720.66
2018-06-15T14:27:36.676Z,101714.33
2018-06-15T14:30:11.473Z,101710.69
2018-06-15T14:32:42.935Z,101708.88
2018-06-15T14:35:12.866Z,101711.70
2018-06-15T14:37:45.684Z,101705.20
2018-06-15T14:40:17.095Z,101702.30
2018-06-15T14:42:48.414Z,101706.16
2018-06-15T14:45:19.940Z,101699.11
2018-06-15T14:47:51.380Z,101691.95
2018-06-15T14:50:25.699Z,101692.88
2018-06-15T14:52:57.157Z,101687.55
2018-06-15T14:55:29.977Z,101680.27
2018-06-15T14:58:02.901Z,101681.54
2018-06-15T15:00:34.277Z,101676.30
2018-06-15T15:03:06.823Z,101673.84
2018-06-15T15:05:39.744Z,101674.08
2018-06-15T15:08:10.223Z,101676.30
2018-06-15T15:10:43.106Z,101674.17
2018-06-15T15:13:16.402Z,101679.98
2018-06-15T15:15:46.317Z,101673.53
2018-06-15T15:18:16.180Z,101678.08
2018-06-15T15:20:47.639Z,101677.25
2018-06-15T15:23:19.032Z,101677.30
2018-06-15T15:25:53.833Z,101680.03
2018-06-15T15:28:25.161Z,101681.72
2018-06-15T15:30:56.028Z,101680.14
2018-06-15T15:33:30.448Z,101685.98
2018-06-15T15:36:00.901Z,101684.09
2018-06-15T15:38:34.132Z,101681.72
2018-06-15T15:41:05.901Z,101684.32
2018-06-15T15:43:38.804Z,101683.66
2018-06-15T15:46:10.776Z,101689.38
2018-06-15T15:48:43.721Z,101689.43
2018-06-15T15:51:17.161Z,101684.75
2018-06-15T15:53:47.002Z,101677.06
2018-06-15T15:56:17.043Z,101676.20
2018-06-15T15:58:50.280Z,101678.81
2018-06-15T16:01:20.207Z,101682.92
2018-06-15T16:03:51.688Z,101678.70
2018-06-15T16:06:25.007Z,101676.00
2018-06-15T16:08:54.981Z,101673.07
2018-06-15T16:11:26.976Z,101671.97
2018-06-15T16:13:59.004Z,101673.48
2018-06-15T16:16:31.795Z,101671.85
2018-06-15T16:19:03.329Z,101666.80
2018-06-15T16:21:36.453Z,101670.97
2018-06-15T16:24:06.358Z,101669.08
2018-06-15T16:26:38.300Z,101669.12
2018-06-15T16:29:11.145Z,101672.14
2018-06-15T16:31:42.616Z,101668.14
2018-06-15T16:34:15.453Z,101673.74
2018-06-15T16:36:48.400Z,101673.65
2018-06-15T16:39:19.848Z,101671.00
2018-06-15T16:41:51.197Z,101669.32
2018-06-15T16:44:23.980Z,101671.17
2018-06-15T16:46:55.308Z,101670.73
2018-06-15T16:49:26.725Z,101667.66
2018-06-15T16:51:56.618Z,101670.98
2018-06-15T16:54:26.540Z,101669.78
2018-06-15T16:56:56.430Z,101661.17
2018-06-15T16:59:29.278Z,101668.08
2018-06-15T17:02:02.340Z,101665.11
2018-06-15T17:04:35.214Z,101662.57
2018-06-15T17:07:08.059Z,101661.39
2018-06-15T17:09:37.900Z,101661.66
2018-06-15T17:12:08.298Z,101657.80
2018-06-15T17:14:42.534Z,101656.56
2018-06-15T17:17:15.453Z,101654.23
2018-06-15T17:19:48.297Z,101656.12
2018-06-15T17:22:21.112Z,101654.78
2018-06-15T17:24:54.198Z,101656.90
2018-06-15T17:27:27.095Z,101648.66
2018-06-15T17:29:58.604Z,101650.69
2018-06-15T17:32:30.035Z,101650.06
2018-06-15T17:35:03.079Z,101648.13
2018-06-15T17:37:35.823Z,101644.78
2018-06-15T17:40:07.490Z,101645.27
2018-06-15T17:42:39.261Z,101649.59
2018-06-15T17:45:12.312Z,101653.72
2018-06-15T17:47:43.769Z,101646.14
2018-06-15T17:50:15.322Z,101654.64
2018-06-15T17:52:46.971Z,101645.83
2018-06-15T17:55:17.514Z,101646.94
2018-06-15T17:57:50.628Z,101649.16
2018-06-15T18:00:22.440Z,101646.05
2018-06-15T18:02:57.053Z,101648.30
2018-06-15T18:05:28.016Z,101647.09
2018-06-15T18:08:02.797Z,101644.00
2018-06-15T18:10:35.874Z,101635.14
2018-06-15T18:13:05.768Z,101646.47
2018-06-15T18:15:37.320Z,101653.93
2018-06-15T18:18:10.208Z,101647.09
2018-06-15T18:20:44.671Z,101653.42
2018-06-15T18:23:17.551Z,101649.38
2018-06-15T18:25:51.911Z,101654.55
2018-06-15T18:28:24.992Z,101656.78
2018-06-15T18:30:58.646Z,101655.69
2018-06-15T18:33:30.801Z,101654.91
2018-06-15T18:36:03.765Z,101654.04
2018-06-15T18:38:35.238Z,101660.83
2018-06-15T18:41:10.035Z,101653.95
2018-06-15T18:43:43.044Z,101651.02
2018-06-15T18:46:16.074Z,101653.41
2018-06-15T18:48:47.708Z,101654.87
2018-06-15T18:51:20.650Z,101654.80
2018-06-15T18:53:50.595Z,101660.25
2018-06-15T18:56:23.653Z,101665.05
2018-06-15T18:58:53.983Z,101657.71
2018-06-15T19:01:25.541Z,101654.38
2018-06-15T19:03:59.964Z,101656.96
2018-06-15T19:06:34.297Z,101659.19
2018-06-15T19:09:10.273Z,101655.16
2018-06-15T19:11:42.402Z,101658.71
2018-06-15T19:14:15.388Z,101656.33
2018-06-15T19:16:47.595Z,101660.09
2018-06-15T19:19:21.199Z,101655.97
2018-06-15T19:21:54.483Z,101659.81
2018-06-15T19:24:26.002Z,101659.22
2018-06-15T19:26:57.701Z,101649.17
2018-06-15T19:29:30.738Z,101655.14
2018-06-15T19:32:02.229Z,101652.67
2018-06-15T19:34:33.647Z,101651.82
2018-06-15T19:37:05.094Z,101650.16
2018-06-15T19:39:39.543Z,101654.77
2018-06-15T19:42:11.692Z,101649.27
2018-06-15T19:44:43.220Z,101643.37
2018-06-15T19:47:16.310Z,101643.10
2018-06-15T19:49:46.451Z,101645.03
2018-06-15T19:52:18.607Z,101643.94
2018-06-15T19:54:51.629Z,101652.66
2018-06-15T19:57:23.342Z,101648.03
2018-06-15T19:59:54.796Z,101650.08
2018-06-15T20:02:26.693Z,101652.22
2018-06-15T20:04:56.608Z,101652.85
2018-06-15T20:07:28.076Z,101658.27
2018-06-15T20:10:02.660Z,101653.75
2018-06-15T20:12:34.275Z,101650.36
2018-06-15T20:15:05.668Z,101644.16
2018-06-15T20:17:39.111Z,101646.97
2018-06-15T20:20:09.098Z,101645.62
2018-06-15T20:22:42.700Z,101648.28
2018-06-15T20:25:14.640Z,101644.62
2018-06-15T20:27:49.179Z,101649.30
2018-06-15T20:30:22.162Z,101652.49
2018-06-15T20:32:55.233Z,101652.41
2018-06-15T20:35:27.100Z,101650.55
2018-06-15T20:37:58.670Z,101658.74
2018-06-15T20:40:28.602Z,101661.58
2018-06-15T20:42:58.674Z,101663.63
2018-06-15T20:45:28.717Z,101657.28
2018-06-15T20:48:03.302Z,101660.20
2018-06-15T20:50:37.920Z,101656.49
2018-06-15T20:53:07.919Z,101652.84
2018-06-15T20:55:39.285Z,101656.11
2018-06-15T20:58:12.376Z,101653.70
2018-06-15T21:00:42.076Z,101652.21
2018-06-15T21:03:13.485Z,101649.66
2018-06-15T21:05:43.512Z,101658.71
2018-06-15T21:08:16.472Z,101660.20
2018-06-15T21:10:48.047Z,101659.97
2018-06-15T21:13:21.022Z,101656.08
2018-06-15T21:15:52.443Z,101650.59
2018-06-15T21:18:25.395Z,101643.71
2018-06-15T21:20:56.820Z,101647.27
2018-06-15T21:23:31.585Z,101653.11
2018-06-15T21:26:06.198Z,101649.58
2018-06-15T21:28:41.110Z,101644.18
2018-06-15T21:31:15.985Z,101645.28
2018-06-15T21:33:47.553Z,101642.50
2018-06-15T21:36:18.993Z,101642.72
2018-06-15T21:38:50.497Z,101638.95
2018-06-15T21:41:23.755Z,101642.59
2018-06-15T21:43:56.877Z,101641.11
2018-06-15T21:46:29.739Z,101635.47
2018-06-15T21:49:04.151Z,101638.34
2018-06-15T21:51:38.639Z,101631.06
2018-06-15T21:54:10.242Z,101628.16
2018-06-15T21:56:44.727Z,101639.03
2018-06-15T21:59:17.748Z,101640.47
2018-06-15T22:01:47.666Z,101630.08
2018-06-15T22:04:21.155Z,101632.03
2018-06-15T22:06:52.834Z,101635.80
2018-06-15T22:09:24.397Z,101630.73
2018-06-15T22:11:57.549Z,101633.34
2018-06-15T22:14:31.469Z,101631.51
2018-06-15T22:17:02.955Z,101631.28
2018-06-15T22:19:36.069Z,101634.44
2018-06-15T22:22:09.130Z,101632.49
2018-06-15T22:24:43.493Z,101627.92
2018-06-15T22:27:15.191Z,101624.05
2018-06-15T22:29:46.643Z,101621.62
2018-06-15T22:32:17.105Z,101617.31
2018-06-15T22:34:50.485Z,101624.41
2018-06-15T22:37:21.999Z,101623.29
2018-06-15T22:39:55.070Z,101624.59
2018-06-15T22:42:25.800Z,101618.81
2018-06-15T22:45:00.234Z,101624.69
2018-06-15T22:47:32.303Z,101629.84
2018-06-15T22:50:05.255Z,101630.52
2018-06-15T22:52:36.765Z,101629.23
2018-06-15T22:55:08.391Z,101635.77
2018-06-15T22:57:41.355Z,101632.27
2018-06-15T23:00:11.715Z,101631.95
2018-06-15T23:02:42.778Z,101636.61
2018-06-15T23:05:14.415Z,101630.22
2018-06-15T23:07:46.301Z,101627.57
2018-06-15T23:10:17.827Z,101626.96
2018-06-15T23:12:47.834Z,101628.59
2018-06-15T23:15:21.646Z,101630.84
2018-06-15T23:17:52.673Z,101627.57
2018-06-15T23:20:23.678Z,101619.41
2018-06-15T23:22:55.195Z,101629.42
2018-06-15T23:25:28.557Z,101620.54
2018-06-15T23:28:01.742Z,101620.57
2018-06-15T23:30:33.330Z,101622.13
2018-06-15T23:33:06.249Z,101625.06
2018-06-15T23:35:38.683Z,101627.28
2018-06-15T23:38:10.161Z,101626.83
2018-06-15T23:40:43.112Z,101628.61
2018-06-15T23:43:16.077Z,101628.44
2018-06-15T23:45:48.143Z,101626.67
2018-06-15T23:48:19.642Z,101617.07
2018-06-15T23:50:52.569Z,101621.23
2018-06-15T23:53:24.413Z,101622.33
2018-06-15T23:55:58.772Z,101622.33
2018-06-15T23:58:31.916Z,101626.52
